Time;durP1;ratioP1;P1;durP2;ratioP2;P2;SDS_P1;SDS_P2;PMS_P1;PMS_P2;Temp;Humidity;BMP_temperature;BMP_pressure;BME280_temperature;BME280_humidity;BME280_pressure;Samples;Min_cycle;Max_cycle;Signal;HPM_P1;HPM_P2
2023/06/17 00:01:07;;;;;;;21.40;16.30;;;12.70;99.90;;;;;;5030483;28;20033;-82
2023/06/17 00:03:33;;;;;;;19.55;17.50;;;12.60;99.90;;;;;;5029023;28;20025;-83
2023/06/17 00:05:58;;;;;;;19.77;16.58;;;12.60;99.90;;;;;;5028970;28;20086;-81
2023/06/17 00:08:24;;;;;;;23.52;18.13;;;12.60;99.90;;;;;;5028974;28;20063;-83
2023/06/17 00:10:50;;;;;;;20.67;17.38;;;12.70;99.90;;;;;;5028981;28;20029;-83
2023/06/17 00:13:19;;;;;;;21.48;17.55;;;12.60;99.90;;;;;;5028784;28;20050;-83
2023/06/17 00:15:47;;;;;;;18.25;15.75;;;12.70;99.90;;;;;;5030105;28;20030;-83
2023/06/17 00:18:14;;;;;;;17.15;14.75;;;12.70;99.90;;;;;;5029946;28;20029;-84
2023/06/17 00:20:39;;;;;;;18.20;15.07;;;12.80;99.90;;;;;;5030459;28;20470;-82
2023/06/17 00:23:06;;;;;;;17.23;14.82;;;12.80;99.90;;;;;;5029974;28;20028;-83
2023/06/17 00:25:31;;;;;;;17.48;15.55;;;12.80;99.90;;;;;;5029179;28;20071;-83
2023/06/17 00:27:57;;;;;;;19.63;16.02;;;12.80;99.90;;;;;;5033101;28;20467;-83
2023/06/17 00:30:23;;;;;;;17.70;15.40;;;12.70;99.90;;;;;;5032150;28;20030;-83
2023/06/17 00:32:48;;;;;;;17.10;14.43;;;12.70;99.90;;;;;;5035425;28;20026;-82
2023/06/17 00:35:14;;;;;;;16.58;13.85;;;12.80;99.90;;;;;;5033748;28;20060;-83
2023/06/17 00:37:39;;;;;;;17.67;14.57;;;12.70;99.90;;;;;;5033538;28;20386;-84
2023/06/17 00:40:07;;;;;;;18.83;15.27;;;12.70;99.90;;;;;;5032363;28;20025;-84
2023/06/17 00:42:34;;;;;;;16.05;14.35;;;12.70;99.90;;;;;;5033380;28;20026;-84
2023/06/17 00:45:00;;;;;;;17.23;15.52;;;12.70;99.90;;;;;;5032372;28;20053;-84
2023/06/17 00:47:25;;;;;;;15.85;14.02;;;12.70;99.90;;;;;;5033335;28;20060;-83
2023/06/17 00:49:53;;;;;;;16.58;13.68;;;12.70;99.90;;;;;;5031916;28;20017;-83
2023/06/17 00:52:19;;;;;;;17.60;15.18;;;12.80;99.90;;;;;;5031973;28;20065;-84
2023/06/17 00:54:45;;;;;;;17.27;15.00;;;12.80;99.90;;;;;;5031853;28;20081;-83
2023/06/17 00:57:14;;;;;;;16.30;14.35;;;12.80;99.90;;;;;;5032988;28;20108;-84
2023/06/17 00:59:42;;;;;;;16.23;14.50;;;12.80;99.90;;;;;;5033091;28;20022;-84
2023/06/17 01:02:10;;;;;;;16.10;14.40;;;12.90;99.90;;;;;;5033110;28;20025;-83
2023/06/17 01:04:40;;;;;;;18.70;14.88;;;12.80;99.90;;;;;;5031701;28;20406;-82
2023/06/17 01:07:52;;;;;;;19.33;14.77;;;12.70;99.90;;;;;;5031891;28;20037;-82
2023/06/17 01:10:21;;;;;;;20.40;15.20;;;12.80;99.90;;;;;;5032039;28;20037;-81
2023/06/17 01:12:47;;;;;;;17.95;14.82;;;12.70;99.90;;;;;;5032688;28;20516;-81
2023/06/17 01:15:16;;;;;;;20.42;14.77;;;12.80;99.90;;;;;;5031482;28;20028;-81
2023/06/17 01:17:46;;;;;;;15.77;13.88;;;12.70;99.90;;;;;;5031295;28;20490;-81
2023/06/17 01:20:15;;;;;;;16.00;14.32;;;12.70;99.90;;;;;;5031918;28;20063;-82
2023/06/17 01:22:42;;;;;;;15.32;13.40;;;12.80;99.90;;;;;;5031636;28;20409;-82
2023/06/17 01:25:09;;;;;;;16.80;14.77;;;12.70;99.90;;;;;;5031525;28;20097;-83
2023/06/17 01:27:35;;;;;;;18.52;14.23;;;12.80;99.90;;;;;;5031401;28;20029;-82
2023/06/17 01:30:02;;;;;;;16.45;14.43;;;12.80;99.90;;;;;;5032430;28;20026;-83
2023/06/17 01:32:28;;;;;;;14.95;13.10;;;12.80;99.90;;;;;;5032658;28;20101;-82
2023/06/17 01:35:02;;;;;;;17.48;13.25;;;12.80;99.90;;;;;;5031239;28;20056;-82
2023/06/17 01:37:36;;;;;;;15.68;13.77;;;12.80;99.90;;;;;;5030313;28;20094;-81
2023/06/17 01:40:04;;;;;;;14.95;13.48;;;12.80;99.90;;;;;;5030359;28;20033;-81
2023/06/17 01:42:34;;;;;;;19.00;14.35;;;12.70;99.90;;;;;;5031138;28;20028;-81
2023/06/17 01:45:03;;;;;;;14.35;12.90;;;12.70;99.90;;;;;;5032368;28;20022;-82
2023/06/17 01:47:29;;;;;;;17.45;13.40;;;12.60;99.90;;;;;;5031046;28;20029;-81
2023/06/17 01:50:01;;;;;;;17.10;13.40;;;12.60;99.90;;;;;;5030643;28;20026;-81
2023/06/17 01:52:27;;;;;;;14.88;13.20;;;12.60;99.90;;;;;;5030901;28;20428;-81
2023/06/17 01:54:52;;;;;;;15.32;13.73;;;12.60;99.90;;;;;;5030791;28;20104;-81
2023/06/17 01:57:18;;;;;;;16.73;13.32;;;12.60;99.90;;;;;;5032498;28;20037;-82
2023/06/17 01:59:44;;;;;;;17.95;14.30;;;12.60;99.90;;;;;;5031093;28;20017;-82
2023/06/17 02:02:10;;;;;;;17.60;13.15;;;12.50;99.90;;;;;;5031080;28;20022;-81
2023/06/17 02:04:35;;;;;;;16.30;14.05;;;12.50;99.90;;;;;;5030974;28;20021;-82
2023/06/17 02:07:01;;;;;;;16.80;13.90;;;12.50;99.90;;;;;;5031004;28;20029;-81
2023/06/17 02:09:27;;;;;;;13.90;12.40;;;12.50;99.90;;;;;;5032029;28;20025;-82
2023/06/17 02:11:52;;;;;;;16.92;13.60;;;12.60;99.90;;;;;;5030650;28;20378;-82
2023/06/17 02:14:18;;;;;;;16.63;13.38;;;12.60;99.90;;;;;;5031415;28;20041;-82
2023/06/17 02:16:46;;;;;;;14.65;13.15;;;12.50;99.90;;;;;;5031879;28;20026;-82
2023/06/17 02:19:12;;;;;;;16.60;13.18;;;12.50;99.90;;;;;;5031810;28;20026;-81
2023/06/17 02:21:38;;;;;;;13.88;12.38;;;12.60;99.90;;;;;;5031794;28;20017;-82
2023/06/17 02:24:04;;;;;;;14.27;12.77;;;12.60;99.90;;;;;;5030361;28;20108;-83
2023/06/17 02:26:31;;;;;;;13.82;11.05;;;12.60;99.90;;;;;;5030358;28;20475;-84
2023/06/17 02:28:56;;;;;;;13.38;11.98;;;12.60;99.90;;;;;;5030337;28;20017;-84
2023/06/17 02:31:22;;;;;;;14.23;11.45;;;12.60;99.90;;;;;;5030659;28;20025;-81
2023/06/17 02:33:48;;;;;;;13.57;10.90;;;12.60;99.90;;;;;;5030678;28;20025;-82
2023/06/17 02:36:14;;;;;;;16.20;11.40;;;12.60;99.90;;;;;;5031710;28;20057;-82
2023/06/17 02:38:41;;;;;;;13.05;11.73;;;12.60;99.90;;;;;;5030358;28;20037;-82
2023/06/17 02:41:06;;;;;;;13.75;12.27;;;12.60;99.90;;;;;;5030407;28;20041;-81
2023/06/17 02:43:32;;;;;;;15.38;12.63;;;12.60;99.90;;;;;;5031616;28;20057;-81
2023/06/17 02:45:57;;;;;;;12.90;11.43;;;12.60;99.90;;;;;;5031461;28;20048;-80
2023/06/17 02:48:23;;;;;;;12.23;10.80;;;12.60;99.90;;;;;;5030121;28;20048;-81
2023/06/17 02:50:51;;;;;;;11.38;9.60;;;12.60;99.90;;;;;;5029991;28;20090;-81
2023/06/17 02:53:16;;;;;;;12.13;10.85;;;12.60;99.90;;;;;;5029923;28;20063;-83
2023/06/17 02:55:45;;;;;;;14.35;10.60;;;12.70;99.90;;;;;;5029884;28;20053;-81
2023/06/17 02:58:14;;;;;;;14.00;11.63;;;12.70;99.90;;;;;;5029824;28;20074;-81
2023/06/17 03:00:40;;;;;;;12.82;11.43;;;12.70;99.90;;;;;;5029935;28;20017;-81
2023/06/17 03:03:06;;;;;;;12.32;10.48;;;12.70;99.90;;;;;;5031071;28;20067;-81
2023/06/17 03:05:32;;;;;;;13.00;11.60;;;12.70;99.90;;;;;;5029844;28;20027;-82
2023/06/17 03:07:58;;;;;;;13.50;10.95;;;12.70;99.90;;;;;;5030923;28;20026;-82
2023/06/17 03:10:23;;;;;;;13.13;10.57;;;12.80;99.90;;;;;;5031383;28;20030;-80
2023/06/17 03:12:49;;;;;;;12.70;10.40;;;12.80;99.90;;;;;;5031269;28;20049;-81
2023/06/17 03:15:17;;;;;;;13.10;11.70;;;12.70;99.90;;;;;;5030365;28;20025;-81
2023/06/17 03:17:43;;;;;;;12.43;10.95;;;12.70;99.90;;;;;;5031255;28;20063;-81
2023/06/17 03:20:09;;;;;;;13.50;10.25;;;12.80;99.90;;;;;;5029929;28;20056;-80
2023/06/17 03:22:35;;;;;;;12.60;10.82;;;12.80;99.90;;;;;;5030899;28;20057;-81
2023/06/17 03:25:01;;;;;;;13.43;11.57;;;12.80;99.90;;;;;;5029644;28;20040;-80
2023/06/17 03:27:27;;;;;;;13.93;12.02;;;12.80;99.90;;;;;;5030979;28;20025;-80
2023/06/17 03:29:53;;;;;;;21.00;12.20;;;12.90;99.90;;;;;;5029599;28;20112;-81
2023/06/17 03:32:18;;;;;;;16.38;12.55;;;12.90;99.90;;;;;;5030605;28;20109;-81
2023/06/17 03:34:44;;;;;;;13.30;11.68;;;13.10;99.90;;;;;;5029473;28;20064;-81
2023/06/17 03:37:10;;;;;;;13.35;11.95;;;13.20;99.90;;;;;;5029564;28;20174;-82
2023/06/17 03:39:36;;;;;;;12.57;11.32;;;13.30;99.90;;;;;;5029340;28;20025;-81
2023/06/17 03:42:01;;;;;;;13.73;11.27;;;13.40;99.90;;;;;;5029315;28;20382;-81
2023/06/17 03:44:27;;;;;;;15.32;11.27;;;13.40;99.90;;;;;;5030347;28;20102;-80
2023/06/17 03:46:53;;;;;;;12.43;10.13;;;13.60;99.90;;;;;;5016363;28;20026;-81
2023/06/17 03:49:19;;;;;;;10.85;9.85;;;13.70;99.90;;;;;;5009258;28;20474;-81
2023/06/17 03:51:45;;;;;;;11.07;10.02;;;13.80;99.90;;;;;;5009171;28;20073;-82
2023/06/17 03:54:11;;;;;;;13.20;9.52;;;14.00;99.90;;;;;;5010488;28;20065;-82
2023/06/17 03:56:37;;;;;;;14.35;10.32;;;14.10;99.90;;;;;;5010918;28;20071;-82
2023/06/17 03:59:02;;;;;;;11.60;10.40;;;14.30;99.90;;;;;;5009938;28;20087;-82
2023/06/17 04:01:28;;;;;;;10.98;9.88;;;14.30;99.90;;;;;;5009171;28;20437;-82
2023/06/17 04:03:53;;;;;;;11.20;10.00;;;14.40;99.90;;;;;;5021281;28;20075;-83
2023/06/17 04:06:20;;;;;;;11.10;9.20;;;14.50;99.90;;;;;;5029188;28;20030;-83
2023/06/17 04:08:46;;;;;;;14.43;9.73;;;14.50;99.90;;;;;;5029073;28;20490;-83
2023/06/17 04:11:12;;;;;;;11.35;10.15;;;14.70;99.90;;;;;;5030252;28;20026;-83
2023/06/17 04:13:37;;;;;;;12.05;10.20;;;14.80;99.90;;;;;;5028851;28;20032;-83
2023/06/17 04:16:03;;;;;;;11.50;10.20;;;14.90;99.90;;;;;;5030224;28;20026;-82
2023/06/17 04:18:29;;;;;;;11.60;10.38;;;15.00;99.90;;;;;;5028530;28;20033;-82
2023/06/17 04:20:56;;;;;;;12.68;10.50;;;15.10;99.90;;;;;;5030017;28;20471;-82
2023/06/17 04:23:24;;;;;;;12.77;9.88;;;15.10;99.90;;;;;;5028687;28;20360;-82
2023/06/17 04:25:50;;;;;;;12.60;10.32;;;15.00;99.90;;;;;;5028648;28;20029;-82
2023/06/17 04:28:19;;;;;;;11.82;10.63;;;15.00;99.90;;;;;;5028564;28;20051;-82
2023/06/17 04:30:47;;;;;;;11.77;10.52;;;14.90;99.90;;;;;;5020903;28;20056;-82
2023/06/17 04:33:14;;;;;;;11.65;10.15;;;15.00;99.90;;;;;;5008814;28;20022;-82
2023/06/17 04:35:42;;;;;;;16.95;10.82;;;15.00;99.90;;;;;;5019238;28;20144;-83
2023/06/17 04:38:10;;;;;;;13.50;11.57;;;15.00;99.90;;;;;;5018618;28;20034;-82
2023/06/17 04:40:36;;;;;;;12.35;11.05;;;15.10;99.90;;;;;;5017717;28;20029;-82
2023/06/17 04:43:02;;;;;;;14.35;10.27;;;15.20;99.90;;;;;;5019231;28;20018;-83
2023/06/17 04:45:28;;;;;;;12.30;11.10;;;15.20;99.90;;;;;;5016442;28;20022;-83
2023/06/17 04:47:54;;;;;;;12.00;10.57;;;15.40;99.90;;;;;;5012345;28;20026;-83
2023/06/17 04:50:20;;;;;;;13.05;10.93;;;15.60;99.90;;;;;;5008469;28;20053;-82
2023/06/17 04:52:51;;;;;;;13.30;11.90;;;15.50;99.90;;;;;;5008560;28;20025;-82
2023/06/17 04:55:18;;;;;;;13.35;11.20;;;15.70;99.90;;;;;;5009889;28;20032;-82
2023/06/17 04:57:45;;;;;;;13.70;11.30;;;15.90;99.90;;;;;;5008401;28;20433;-83
2023/06/17 05:00:12;;;;;;;14.57;10.98;;;15.80;99.90;;;;;;5020492;28;20064;-82
2023/06/17 05:02:39;;;;;;;14.80;11.75;;;15.80;99.90;;;;;;5031672;28;20101;-83
2023/06/17 05:05:05;;;;;;;13.23;11.40;;;15.80;99.90;;;;;;5032705;28;20018;-82
2023/06/17 05:07:32;;;;;;;13.15;11.70;;;15.80;99.90;;;;;;5028114;28;20041;-83
2023/06/17 05:09:57;;;;;;;13.77;12.23;;;15.80;99.90;;;;;;5029439;28;20025;-82
2023/06/17 05:12:23;;;;;;;13.70;12.05;;;15.90;99.90;;;;;;5028967;28;20022;-83
2023/06/17 05:14:49;;;;;;;13.27;11.13;;;15.80;99.90;;;;;;5032717;28;20047;-82
2023/06/17 05:17:14;;;;;;;13.38;12.05;;;16.00;99.90;;;;;;5032672;28;20530;-83
2023/06/17 05:19:40;;;;;;;13.43;12.13;;;15.80;99.90;;;;;;5032131;28;20039;-82
2023/06/17 05:22:06;;;;;;;15.18;11.95;;;15.90;99.90;;;;;;5031312;28;20360;-83
2023/06/17 05:24:31;;;;;;;15.77;12.00;;;16.00;99.90;;;;;;5031344;28;20104;-83
2023/06/17 05:26:57;;;;;;;12.95;11.55;;;16.00;99.90;;;;;;5031379;28;20451;-82
2023/06/17 05:29:22;;;;;;;13.25;11.85;;;16.00;99.90;;;;;;5031082;28;20045;-82
2023/06/17 05:31:48;;;;;;;14.20;12.75;;;16.10;99.90;;;;;;5015367;28;20474;-82
2023/06/17 05:34:14;;;;;;;12.80;11.50;;;15.80;99.90;;;;;;5017865;28;20030;-82
2023/06/17 05:36:40;;;;;;;12.98;11.65;;;15.90;99.90;;;;;;5031182;28;20177;-83
2023/06/17 05:39:05;;;;;;;13.40;11.90;;;15.90;99.90;;;;;;5031056;28;20395;-83
2023/06/17 05:41:31;;;;;;;13.73;12.32;;;16.10;99.90;;;;;;5031057;28;20014;-83
2023/06/17 05:43:57;;;;;;;12.98;11.68;;;16.10;99.90;;;;;;5030854;28;20022;-82
2023/06/17 05:46:22;;;;;;;13.77;11.98;;;16.20;99.90;;;;;;5021858;28;20457;-81
2023/06/17 05:48:48;;;;;;;12.60;11.40;;;16.20;99.90;;;;;;5012278;28;20518;-81
2023/06/17 05:51:16;;;;;;;14.30;12.45;;;16.30;99.90;;;;;;5010904;28;20050;-81
2023/06/17 05:53:42;;;;;;;12.98;11.60;;;16.40;99.90;;;;;;5016101;28;20037;-81
2023/06/17 05:56:11;;;;;;;13.70;11.63;;;16.60;99.90;;;;;;5021245;28;20040;-81
2023/06/17 05:58:37;;;;;;;13.93;12.32;;;16.70;99.90;;;;;;5021473;28;20034;-81
2023/06/17 06:01:02;;;;;;;15.15;11.98;;;16.80;99.90;;;;;;5022922;28;20028;-80
2023/06/17 06:03:28;;;;;;;12.35;11.10;;;16.80;99.90;;;;;;5019234;28;20018;-81
2023/06/17 06:05:54;;;;;;;15.13;11.63;;;16.70;99.90;;;;;;5019635;28;20030;-81
2023/06/17 06:08:19;;;;;;;14.02;11.55;;;16.80;99.90;;;;;;5019861;28;20112;-82
2023/06/17 06:10:48;;;;;;;13.43;12.13;;;16.80;99.90;;;;;;5022398;28;20037;-81
2023/06/17 06:13:13;;;;;;;17.10;12.75;;;16.70;99.90;;;;;;5010434;28;20022;-80
2023/06/17 06:15:42;;;;;;;14.88;11.55;;;16.70;99.90;;;;;;5011863;28;20037;-81
2023/06/17 06:18:08;;;;;;;15.50;11.55;;;16.60;99.90;;;;;;5011664;28;20057;-81
2023/06/17 06:20:33;;;;;;;14.60;11.70;;;16.80;99.90;;;;;;5010485;28;20137;-80
2023/06/17 06:23:00;;;;;;;15.95;11.95;;;17.00;99.90;;;;;;5011598;28;20022;-80
2023/06/17 06:25:26;;;;;;;17.23;12.88;;;17.10;99.90;;;;;;5011115;28;20022;-80
2023/06/17 06:27:51;;;;;;;13.40;11.98;;;17.20;99.90;;;;;;5009772;28;20071;-81
2023/06/17 06:30:17;;;;;;;14.30;11.13;;;17.40;99.90;;;;;;5009174;28;20018;-80
2023/06/17 06:32:43;;;;;;;13.07;11.73;;;17.50;99.90;;;;;;5011667;28;20022;-79
2023/06/17 06:35:09;;;;;;;13.30;11.90;;;17.70;99.90;;;;;;5017150;28;20025;-81
2023/06/17 06:37:34;;;;;;;14.30;11.60;;;17.80;99.90;;;;;;5027561;28;20394;-79
2023/06/17 06:40:00;;;;;;;15.00;11.88;;;18.00;99.90;;;;;;5016167;28;20498;-81
2023/06/17 06:42:26;;;;;;;14.35;12.88;;;18.10;99.90;;;;;;5010351;28;20018;-79
2023/06/17 06:44:52;;;;;;;13.57;11.45;;;18.20;99.90;;;;;;5010319;28;20532;-82
2023/06/17 06:47:18;;;;;;;13.43;12.00;;;18.40;99.90;;;;;;5029889;28;20022;-81
2023/06/17 06:49:44;;;;;;;13.35;11.98;;;18.50;99.90;;;;;;5029394;28;20018;-77
2023/06/17 06:52:10;;;;;;;14.30;12.90;;;18.50;99.90;;;;;;5031120;28;20055;-81
2023/06/17 06:54:37;;;;;;;14.75;11.75;;;18.60;99.90;;;;;;5034187;28;20058;-81
2023/06/17 06:57:03;;;;;;;14.93;13.40;;;18.60;97.90;;;;;;5031239;28;20506;-81
2023/06/17 06:59:29;;;;;;;15.45;11.85;;;18.50;96.10;;;;;;5029041;28;20026;-82
2023/06/17 07:01:58;;;;;;;13.52;11.93;;;18.60;97.40;;;;;;5024669;28;20022;-80
2023/06/17 07:04:23;;;;;;;12.82;11.63;;;18.80;99.70;;;;;;5017829;28;20078;-82
2023/06/17 07:06:49;;;;;;;13.48;11.60;;;18.90;99.10;;;;;;5050548;27;20483;-81
2023/06/17 07:09:15;;;;;;;14.75;11.63;;;19.00;94.90;;;;;;5111362;27;20050;-81
2023/06/17 07:11:41;;;;;;;13.25;11.85;;;18.90;90.80;;;;;;5054118;27;20031;-81
2023/06/17 07:14:06;;;;;;;15.48;12.40;;;19.00;94.70;;;;;;5032647;27;20048;-82
2023/06/17 07:16:32;;;;;;;13.18;11.88;;;19.20;95.10;;;;;;5131162;27;20408;-81
2023/06/17 07:18:57;;;;;;;13.50;12.10;;;19.30;91.20;;;;;;5133206;27;20022;-81
2023/06/17 07:21:23;;;;;;;12.45;11.07;;;19.10;87.80;;;;;;5134521;27;20019;-81
2023/06/17 07:23:50;;;;;;;13.63;11.95;;;19.10;90.00;;;;;;5115551;27;20031;-81
2023/06/17 07:26:16;;;;;;;13.80;11.38;;;19.30;91.60;;;;;;5029372;28;20049;-82
2023/06/17 07:28:43;;;;;;;13.18;11.73;;;19.20;90.00;;;;;;5063943;27;20051;-83
2023/06/17 07:31:08;;;;;;;14.30;11.70;;;19.40;85.70;;;;;;5110670;27;20539;-82
2023/06/17 07:33:34;;;;;;;14.93;11.10;;;19.50;86.80;;;;;;5073217;27;20124;-81
2023/06/17 07:36:00;;;;;;;12.70;11.43;;;19.40;84.50;;;;;;5132057;27;20050;-80
2023/06/17 07:38:26;;;;;;;13.38;11.95;;;19.40;84.80;;;;;;5110261;27;20400;-81
2023/06/17 07:40:51;;;;;;;12.18;10.63;;;19.60;84.00;;;;;;5063460;27;20113;-81
2023/06/17 07:43:17;;;;;;;16.50;12.30;;;19.60;82.50;;;;;;5031761;28;20025;-81
2023/06/17 07:45:43;;;;;;;12.18;10.15;;;19.60;82.40;;;;;;5133005;27;20080;-80
2023/06/17 07:48:08;;;;;;;12.20;10.90;;;19.80;80.80;;;;;;5131470;27;20495;-81
2023/06/17 07:50:34;;;;;;;13.98;10.88;;;20.20;80.30;;;;;;5131573;27;20043;-81
2023/06/17 07:53:00;;;;;;;12.38;10.65;;;20.20;82.00;;;;;;5127286;27;20023;-81
2023/06/17 07:55:26;;;;;;;10.75;9.75;;;20.20;80.30;;;;;;5027661;28;20021;-81
2023/06/17 07:57:52;;;;;;;12.23;10.00;;;20.10;79.80;;;;;;5040507;27;20038;-81
2023/06/17 08:00:18;;;;;;;11.65;10.45;;;20.20;77.40;;;;;;5025619;28;20142;-81
2023/06/17 08:02:44;;;;;;;11.98;9.68;;;20.30;78.00;;;;;;5014029;28;20026;-81
2023/06/17 08:05:09;;;;;;;11.38;9.60;;;20.00;76.30;;;;;;5027378;28;20390;-81
2023/06/17 08:07:36;;;;;;;11.73;9.48;;;20.20;77.30;;;;;;5021035;28;20018;-82
2023/06/17 08:10:02;;;;;;;11.88;9.18;;;19.80;76.80;;;;;;5009438;28;20053;-82
2023/06/17 08:12:27;;;;;;;10.90;9.30;;;19.60;75.80;;;;;;5009241;28;20075;-82
2023/06/17 08:14:53;;;;;;;11.50;9.30;;;19.50;77.90;;;;;;5010377;28;20391;-81
2023/06/17 08:17:19;;;;;;;12.45;10.02;;;19.80;79.70;;;;;;5116598;28;20110;-81
2023/06/17 08:19:44;;;;;;;14.43;10.48;;;20.20;80.60;;;;;;5112143;28;20125;-81
2023/06/17 08:22:10;;;;;;;11.18;9.57;;;20.60;82.80;;;;;;5026968;28;20022;-81
2023/06/17 08:24:36;;;;;;;10.80;9.68;;;20.60;76.90;;;;;;5044685;28;20023;-81
2023/06/17 08:27:02;;;;;;;11.43;10.25;;;20.80;77.60;;;;;;5032941;28;20043;-81
2023/06/17 08:29:28;;;;;;;11.18;9.82;;;20.40;76.10;;;;;;5030545;28;20077;-82
2023/06/17 08:31:54;;;;;;;10.35;9.25;;;20.40;78.80;;;;;;5019253;28;20124;-81
2023/06/17 08:34:23;;;;;;;9.77;8.57;;;20.20;75.80;;;;;;5017991;28;20383;-82
2023/06/17 08:36:54;;;;;;;12.07;9.32;;;20.10;78.20;;;;;;5019052;28;20010;-81
2023/06/17 08:39:20;;;;;;;11.05;9.10;;;20.70;78.50;;;;;;5023631;28;20431;-82
2023/06/17 08:41:46;;;;;;;9.80;8.68;;;21.20;75.70;;;;;;5021916;28;20059;-81
2023/06/17 08:44:13;;;;;;;10.43;8.82;;;21.60;72.90;;;;;;5026595;28;20044;-80
2023/06/17 08:46:40;;;;;;;11.48;9.15;;;21.70;70.30;;;;;;5051425;27;20019;-81
2023/06/17 08:49:11;;;;;;;9.77;8.77;;;21.60;70.00;;;;;;5107232;27;20045;-79
2023/06/17 08:51:38;;;;;;;10.15;9.02;;;21.50;70.20;;;;;;5023896;28;20041;-81
2023/06/17 08:54:04;;;;;;;11.65;9.88;;;21.40;69.60;;;;;;5022347;28;20036;-80
2023/06/17 08:56:30;;;;;;;10.48;8.70;;;21.10;70.50;;;;;;5013601;28;20459;-80
2023/06/17 08:58:56;;;;;;;9.45;8.52;;;21.30;71.60;;;;;;5013735;28;20057;-79
2023/06/17 09:01:25;;;;;;;8.30;7.50;;;21.20;69.70;;;;;;5061538;27;20022;-81
2023/06/17 09:03:52;;;;;;;14.32;8.35;;;21.30;69.30;;;;;;5010078;28;20034;-82
2023/06/17 09:06:25;;;;;;;10.20;9.20;;;21.40;68.20;;;;;;5011389;28;20033;-81
2023/06/17 09:08:52;;;;;;;10.52;9.52;;;21.60;68.70;;;;;;5011374;28;20079;-79
2023/06/17 09:11:30;;;;;;;9.05;8.25;;;22.10;69.10;;;;;;5010826;28;20026;-81
2023/06/17 09:17:29;;;;;;;15.68;8.60;;;21.90;67.60;;;;;;5030876;28;20048;-78
2023/06/17 09:19:55;;;;;;;8.55;7.70;;;22.00;67.10;;;;;;5031468;28;20501;-80
2023/06/17 09:22:21;;;;;;;8.93;7.55;;;22.50;67.20;;;;;;5031253;28;20030;-81
2023/06/17 09:24:46;;;;;;;9.68;7.55;;;23.00;67.30;;;;;;5031320;28;20025;-82
2023/06/17 09:27:22;;;;;;;8.90;8.00;;;22.80;63.70;;;;;;5030234;28;20488;-78
2023/06/17 09:30:05;;;;;;;10.43;7.82;;;23.00;63.50;;;;;;5024922;28;20049;-79
2023/06/17 09:32:38;;;;;;;8.82;7.55;;;22.80;62.80;;;;;;5025434;28;20462;-79
2023/06/17 09:35:05;;;;;;;8.95;7.60;;;22.50;63.10;;;;;;5020835;28;20502;-79
2023/06/17 09:37:30;;;;;;;11.75;8.35;;;22.70;63.60;;;;;;5022356;28;20510;-79
2023/06/17 09:39:58;;;;;;;10.10;8.55;;;22.70;64.00;;;;;;5023327;28;20055;-79
2023/06/17 09:42:30;;;;;;;8.70;7.90;;;22.40;63.90;;;;;;5031820;28;20013;-80
2023/06/17 09:44:56;;;;;;;9.23;8.37;;;22.30;63.60;;;;;;5030823;28;20018;-80
2023/06/17 09:47:32;;;;;;;8.98;8.07;;;22.40;64.50;;;;;;5031923;28;20022;-81
2023/06/17 09:50:03;;;;;;;9.18;7.72;;;22.30;64.00;;;;;;5014511;28;20105;-83
2023/06/17 09:52:35;;;;;;;9.63;8.43;;;21.90;63.90;;;;;;5028982;28;20479;-83
2023/06/17 09:55:04;;;;;;;8.60;7.60;;;21.80;64.30;;;;;;5031935;28;20026;-83
2023/06/17 09:57:31;;;;;;;9.15;8.13;;;21.70;64.30;;;;;;5030422;28;20044;-83
2023/06/17 09:59:57;;;;;;;7.82;7.03;;;21.50;64.10;;;;;;5029875;28;20530;-82
2023/06/17 10:02:23;;;;;;;7.97;7.18;;;21.60;64.50;;;;;;5032213;28;20105;-83
2023/06/17 10:04:48;;;;;;;10.20;7.97;;;21.80;64.10;;;;;;5031855;28;20049;-83
2023/06/17 10:07:15;;;;;;;8.98;8.00;;;22.10;63.90;;;;;;5030405;28;20363;-83
2023/06/17 10:09:41;;;;;;;8.00;7.15;;;22.30;62.30;;;;;;5031625;28;20057;-83
2023/06/17 10:12:09;;;;;;;8.13;7.32;;;22.40;61.90;;;;;;5031638;28;20022;-83
2023/06/17 10:14:35;;;;;;;7.43;6.82;;;22.20;60.80;;;;;;5031541;28;20026;-83
2023/06/17 10:17:05;;;;;;;7.07;6.45;;;22.30;63.10;;;;;;5028670;28;20101;-83
2023/06/17 10:19:34;;;;;;;8.15;6.65;;;22.50;62.70;;;;;;5030191;28;20352;-83
2023/06/17 10:22:02;;;;;;;8.38;7.57;;;22.60;61.60;;;;;;5029017;28;20022;-83
2023/06/17 10:24:28;;;;;;;7.45;6.57;;;22.60;60.40;;;;;;5028773;28;20030;-83
2023/06/17 10:26:54;;;;;;;9.13;6.90;;;22.20;61.30;;;;;;5030590;28;20431;-83
2023/06/17 10:29:20;;;;;;;8.27;6.95;;;22.00;63.10;;;;;;5020921;28;20030;-83
2023/06/17 10:31:46;;;;;;;7.18;6.57;;;22.00;62.10;;;;;;5026441;28;20391;-83
2023/06/17 10:34:17;;;;;;;7.10;6.43;;;22.00;61.40;;;;;;5026778;28;20022;-83
2023/06/17 10:36:47;;;;;;;8.45;5.68;;;22.30;60.70;;;;;;5026412;28;20514;-84
2023/06/17 10:39:13;;;;;;;7.28;6.10;;;22.50;59.00;;;;;;5011605;28;20095;-83
2023/06/17 10:41:42;;;;;;;6.13;5.53;;;22.10;56.80;;;;;;5026689;28;20021;-83
2023/06/17 10:44:20;;;;;;;6.47;5.50;;;22.40;58.80;;;;;;5026551;28;20897;-83
2023/06/17 10:46:49;;;;;;;8.07;5.35;;;22.90;58.80;;;;;;5026003;28;20026;-83
2023/06/17 10:49:16;;;;;;;7.88;5.85;;;23.20;58.10;;;;;;5011301;28;20126;-83
2023/06/17 10:51:49;;;;;;;5.75;5.25;;;23.50;58.40;;;;;;5011327;28;20152;-83
2023/06/17 10:54:14;;;;;;;6.65;5.03;;;23.70;57.20;;;;;;5026389;28;20099;-83
2023/06/17 10:56:53;;;;;;;6.18;5.57;;;23.60;55.80;;;;;;5028064;28;20092;-84
2023/06/17 10:59:25;;;;;;;7.10;5.65;;;23.20;57.00;;;;;;5018376;28;20455;-83
2023/06/17 11:01:52;;;;;;;6.55;5.90;;;22.90;56.80;;;;;;5010323;28;20030;-83
2023/06/17 11:04:18;;;;;;;6.30;5.55;;;22.70;57.30;;;;;;5011164;28;20029;-82
2023/06/17 11:06:46;;;;;;;6.30;5.45;;;22.50;57.60;;;;;;5022058;28;20121;-82
2023/06/17 11:09:12;;;;;;;7.63;5.68;;;22.40;58.50;;;;;;5030948;28;20021;-83
2023/06/17 11:11:37;;;;;;;6.07;5.47;;;22.40;59.00;;;;;;5028300;28;20060;-82
2023/06/17 11:14:03;;;;;;;8.43;6.13;;;22.50;58.30;;;;;;5019931;28;20062;-85
2023/06/17 11:16:29;;;;;;;6.70;5.90;;;22.70;58.10;;;;;;5009142;28;20029;-83
2023/06/17 11:18:55;;;;;;;6.95;6.32;;;22.90;57.10;;;;;;5009574;28;20086;-82
2023/06/17 11:21:20;;;;;;;6.47;5.90;;;23.00;55.90;;;;;;5010980;28;20017;-83
2023/06/17 11:23:46;;;;;;;6.15;5.60;;;23.00;55.40;;;;;;5009638;28;20490;-83
2023/06/17 11:26:12;;;;;;;6.55;5.65;;;23.00;57.10;;;;;;5012048;28;20101;-82
2023/06/17 11:28:41;;;;;;;6.18;5.47;;;23.20;56.40;;;;;;5019531;28;20470;-82
2023/06/17 11:31:07;;;;;;;6.20;5.00;;;23.10;56.60;;;;;;5024865;28;20045;-82
2023/06/17 11:33:35;;;;;;;9.45;5.95;;;23.30;58.10;;;;;;5023964;28;20026;-83
2023/06/17 11:36:02;;;;;;;7.35;5.40;;;23.20;55.70;;;;;;5023456;28;20026;-82
2023/06/17 11:38:29;;;;;;;6.90;5.47;;;23.40;56.20;;;;;;5026850;28;20063;-83
2023/06/17 11:40:57;;;;;;;5.40;4.93;;;23.60;54.80;;;;;;5021070;28;20459;-82
2023/06/17 11:43:26;;;;;;;5.75;4.90;;;23.80;54.30;;;;;;5023182;28;20022;-83
2023/06/17 11:45:56;;;;;;;5.45;4.95;;;24.10;53.90;;;;;;5010570;28;20014;-83
2023/06/17 11:48:33;;;;;;;6.82;4.80;;;24.00;52.80;;;;;;5014815;28;20029;-82
2023/06/17 11:50:58;;;;;;;5.30;4.80;;;23.50;52.00;;;;;;5009643;28;20418;-83
2023/06/17 11:53:50;;;;;;;5.93;5.32;;;23.40;53.00;;;;;;5011004;28;20040;-83
2023/06/17 11:56:20;;;;;;;5.70;5.13;;;23.40;56.20;;;;;;5009464;28;20034;-83
2023/06/17 11:58:46;;;;;;;5.72;5.22;;;23.70;57.50;;;;;;5010700;28;20040;-83
2023/06/17 12:01:13;;;;;;;6.65;5.10;;;23.90;55.00;;;;;;5010263;28;20026;-83
2023/06/17 12:03:47;;;;;;;8.38;5.15;;;23.90;52.20;;;;;;5010550;28;20037;-83
2023/06/17 12:06:20;;;;;;;5.80;5.15;;;24.00;53.70;;;;;;5010513;28;20061;-84
2023/06/17 12:08:55;;;;;;;6.07;5.13;;;24.10;54.00;;;;;;5014393;28;20163;-83
2023/06/17 12:11:35;;;;;;;5.97;5.47;;;24.30;54.00;;;;;;5009323;28;20045;-84
2023/06/17 12:14:10;;;;;;;5.65;5.15;;;24.50;54.90;;;;;;5010629;28;20108;-84
2023/06/17 12:16:38;;;;;;;5.78;5.28;;;24.10;54.00;;;;;;5008861;28;20037;-84
2023/06/17 12:19:07;;;;;;;5.90;5.40;;;24.10;56.30;;;;;;5008906;28;20082;-84
2023/06/17 12:21:34;;;;;;;6.03;4.80;;;24.10;55.90;;;;;;5010927;28;20476;-84
2023/06/17 12:24:01;;;;;;;5.63;5.13;;;23.90;54.90;;;;;;5015336;28;20030;-83
2023/06/17 12:26:26;;;;;;;7.60;5.68;;;23.70;55.00;;;;;;5089410;27;20019;-82
2023/06/17 12:28:53;;;;;;;5.95;5.10;;;23.70;56.50;;;;;;5010568;28;20446;-82
2023/06/17 12:31:19;;;;;;;5.78;5.25;;;23.50;55.70;;;;;;5009849;28;20042;-82
2023/06/17 12:33:48;;;;;;;6.35;5.75;;;23.20;54.50;;;;;;5011927;28;20052;-83
2023/06/17 12:36:16;;;;;;;5.30;4.85;;;23.30;54.80;;;;;;5010306;28;20372;-82